Aérodrome :
LOGIN :

S'inscrire | Disclaimer

   EN    FR    IT 

 










Légende :    VFR   VFR Marginal   IFR   IFR Intensif   IFR Très Intensif
Visi : 
Plafond : 
>= 8 km
>= 3000ft
5 à 8 km
1000 à 3000 ft
1500m à 5 km
500 à 1000 ft
800 à 1500m
200 à 500 ft
< 800m
< 200 ft
Symboles :   Orages  Brouillard  Fortes neiges  Fortes précipitations  Vent > 20 kt
SIGMETs :   Divers  Orages  Givrage  Turbulence  Onde Orograph.  Cendres Volcan.






- Altitude de l'aérodrome : 1260 ft
- Code IATA : LDE


LFBT - Tarbes / Ossun

DERNIER METAR :
  • 100400Z AUTO 13004KT 030V190 9999 FEW033 OVC050 06/05 Q1031

METARs EXPIRÉS :
  • 100330Z AUTO 22004KT 9999 FEW023 OVC054 06/05 Q1031
  • 100300Z AUTO 24003KT 210V270 9999 BKN022 BKN029 BKN034 07/05 Q1031
  • 100230Z AUTO 24005KT 9999 SCT022 SCT028 OVC054 07/05 Q1031
  • 100200Z AUTO 25006KT 9999 SCT024 OVC058 07/05 Q1031
  • 100130Z AUTO 24009KT 9999 SCT025/// BKN060/// ///TCU 07/06 Q1031

TAF TAF LFBT
Valide du 09 à 18h jusqu'au 10 à 18h UTC


091700Z 0918/1018 27015KT 9999 FEW025 SCT050
PROB40
TEMPO 0918/0922 28015G30KT 4000 RA BKN009 FEW025CB BKN035
PROB40
TEMPO 0922/1004 4000 RA BKN008 BKN014
BECMG 1004/1006 16005KT
PROB40
TEMPO 1006/1008 4000 MIFG
FM101000 08005KT CAVOK



MET'MAP, la Météo Aéronautique d'un coup d'oeil ! - Copyright ORBIFLY Décembre 2007 - Disclaimer

ORBIFLY MET'MAP TEAM :

Programmation & Développement : Alexandra Zaïnal
Sur une idée originale de : Baudouin d'Aumeries
Assistance à la programmation : Marc-Olivier Méhu
Soutien technique & logistique : Manuel Goepfert

Contact : metmap@orbifly.com




SOURCES & CREDITS :

   NOAA